createdAt,value
2022-10-24T00:01:23.786Z,4.53
2022-10-24T00:03:51.323Z,3.90
2022-10-24T00:06:20.537Z,5.43
2022-10-24T00:08:51.523Z,3.40
2022-10-24T00:11:27.108Z,2.93
2022-10-24T00:13:57.503Z,4.70
2022-10-24T00:16:25.348Z,3.83
2022-10-24T00:18:53.417Z,3.47
2022-10-24T00:21:20.929Z,3.13
2022-10-24T00:23:48.033Z,2.50
2022-10-24T00:26:16.822Z,3.87
2022-10-24T00:28:44.299Z,2.97
2022-10-24T00:31:18.536Z,4.00
2022-10-24T00:33:46.969Z,2.80
2022-10-24T00:36:22.942Z,3.93
2022-10-24T00:38:52.079Z,3.07
2022-10-24T00:41:22.309Z,3.23
2022-10-24T00:43:49.746Z,3.40
2022-10-24T00:46:19.837Z,7.77
2022-10-24T00:48:55.153Z,3.73
2022-10-24T00:51:30.787Z,3.07
2022-10-24T00:54:04.592Z,2.93
2022-10-24T00:56:38.145Z,2.80
2022-10-24T00:59:08.823Z,2.70
2022-10-24T01:01:38.411Z,3.43
2022-10-24T01:04:07.309Z,3.50
2022-10-24T01:07:08.170Z,3.13
2022-10-24T01:10:15.275Z,4.77
2022-10-24T01:13:33.021Z,5.67
2022-10-24T01:16:14.625Z,3.17
2022-10-24T01:18:57.893Z,4.27
2022-10-24T01:22:02.679Z,5.33
2022-10-24T01:24:55.266Z,2.70
2022-10-24T01:27:52.039Z,2.30
2022-10-24T01:30:20.538Z,3.17
2022-10-24T01:33:06.188Z,2.47
2022-10-24T01:35:45.969Z,7.10
2022-10-24T01:38:49.200Z,3.10
2022-10-24T01:41:27.950Z,5.13
2022-10-24T01:44:25.999Z,3.23
2022-10-24T01:47:04.228Z,2.97
2022-10-24T01:49:37.714Z,3.07
2022-10-24T01:52:11.575Z,3.33
2022-10-24T01:54:41.650Z,2.83
2022-10-24T01:57:09.195Z,2.73
2022-10-24T01:59:50.470Z,3.17
2022-10-24T02:02:45.862Z,4.00
2022-10-24T02:05:29.372Z,2.50
2022-10-24T02:08:05.578Z,3.30
2022-10-24T02:10:40.815Z,3.93
2022-10-24T02:13:17.558Z,3.87
2022-10-24T02:15:52.342Z,4.27
2022-10-24T02:18:20.985Z,2.60
2022-10-24T02:21:05.875Z,3.13
2022-10-24T02:23:59.050Z,2.27
2022-10-24T02:26:49.883Z,4.27
2022-10-24T02:29:27.736Z,1.43
2022-10-24T02:31:58.648Z,1.80
2022-10-24T02:34:32.758Z,2.33
2022-10-24T02:37:01.575Z,2.37
2022-10-24T02:39:30.879Z,3.33
2022-10-24T02:42:00.150Z,4.23
2022-10-24T02:44:30.084Z,3.73
2022-10-24T02:47:01.758Z,2.43
2022-10-24T02:49:29.080Z,1.50
2022-10-24T02:51:56.851Z,3.47
2022-10-24T02:54:24.050Z,4.17
2022-10-24T02:56:58.661Z,2.67
2022-10-24T02:59:25.832Z,3.07
2022-10-24T03:01:53.181Z,2.03
2022-10-24T03:04:20.416Z,2.83
2022-10-24T03:06:48.143Z,2.27
2022-10-24T03:09:15.363Z,3.23
2022-10-24T03:11:42.837Z,2.53
2022-10-24T03:14:10.026Z,4.03
2022-10-24T03:16:37.123Z,2.30
2022-10-24T03:19:04.369Z,4.07
2022-10-24T03:21:31.627Z,3.77
2022-10-24T03:23:59.177Z,4.93
2022-10-24T03:26:26.380Z,4.77
2022-10-24T03:28:53.474Z,4.57
2022-10-24T03:31:20.821Z,6.13
2022-10-24T03:33:48.126Z,5.30
2022-10-24T03:36:15.399Z,2.93
2022-10-24T03:38:42.576Z,6.33
2022-10-24T03:41:09.784Z,4.90
2022-10-24T03:43:37.295Z,6.07
2022-10-24T03:46:04.610Z,4.70
2022-10-24T03:48:31.920Z,3.67
2022-10-24T03:50:59.194Z,3.97
2022-10-24T03:53:26.511Z,3.53
2022-10-24T03:55:53.767Z,3.07
2022-10-24T03:58:20.947Z,2.43
2022-10-24T04:00:48.074Z,5.03
2022-10-24T04:03:15.249Z,4.10
2022-10-24T04:05:42.388Z,4.43
2022-10-24T04:08:10.208Z,3.07
2022-10-24T04:10:37.271Z,6.03
2022-10-24T04:13:04.710Z,3.73
2022-10-24T04:15:32.054Z,5.80
2022-10-24T04:17:59.219Z,2.80
2022-10-24T04:20:26.678Z,7.17
2022-10-24T04:22:53.945Z,5.03
2022-10-24T04:25:20.973Z,7.13
2022-10-24T04:27:48.518Z,3.20
2022-10-24T04:30:16.908Z,4.33
2022-10-24T04:32:46.504Z,2.87
2022-10-24T04:35:14.391Z,4.33
2022-10-24T04:37:41.528Z,5.10
2022-10-24T04:40:10.833Z,3.60
2022-10-24T04:42:37.967Z,2.63
2022-10-24T04:45:06.340Z,4.23
2022-10-24T04:47:33.494Z,2.40
2022-10-24T04:50:00.629Z,5.87
2022-10-24T04:52:28.110Z,3.07
2022-10-24T04:54:55.412Z,4.00
2022-10-24T04:57:22.506Z,4.30
2022-10-24T04:59:49.693Z,4.53
2022-10-24T05:02:17.172Z,3.17
2022-10-24T05:04:44.405Z,3.70
2022-10-24T05:07:11.667Z,5.73
2022-10-24T05:09:38.979Z,3.47
2022-10-24T05:12:06.464Z,3.60
2022-10-24T05:14:33.694Z,4.10
2022-10-24T05:17:00.933Z,3.07
2022-10-24T05:19:28.009Z,2.97
2022-10-24T05:21:55.047Z,4.40
2022-10-24T05:24:22.605Z,6.90
2022-10-24T05:26:49.752Z,3.83
2022-10-24T05:29:16.886Z,4.00
2022-10-24T05:31:44.093Z,5.77
2022-10-24T05:34:11.403Z,3.20
2022-10-24T05:36:38.515Z,3.17
2022-10-24T05:39:05.576Z,6.73
2022-10-24T05:41:32.875Z,5.37
2022-10-24T05:44:00.272Z,6.83
2022-10-24T05:46:27.663Z,5.27
2022-10-24T05:48:54.850Z,7.57
2022-10-24T05:51:22.728Z,4.87
2022-10-24T05:53:49.956Z,5.40
2022-10-24T05:56:17.541Z,5.17
2022-10-24T05:58:44.606Z,5.30
2022-10-24T06:01:11.885Z,6.10
2022-10-24T06:03:39.681Z,5.80
2022-10-24T06:06:09.634Z,6.97
2022-10-24T06:08:38.467Z,6.27
2022-10-24T06:11:09.354Z,4.30
2022-10-24T06:13:37.151Z,6.30
2022-10-24T06:16:07.708Z,6.47
2022-10-24T06:18:36.408Z,6.23
2022-10-24T06:21:06.965Z,7.40
2022-10-24T06:23:34.906Z,7.63
2022-10-24T06:26:02.103Z,4.70
2022-10-24T06:28:29.218Z,4.90
2022-10-24T06:30:56.359Z,6.67
2022-10-24T06:33:23.481Z,6.00
2022-10-24T06:35:50.890Z,4.23
2022-10-24T06:38:18.065Z,4.70
2022-10-24T06:40:45.136Z,3.03
2022-10-24T06:43:12.269Z,5.67
2022-10-24T06:45:39.436Z,5.33
2022-10-24T06:48:07.271Z,16.10
2022-10-24T06:50:34.562Z,7.47
2022-10-24T06:53:01.692Z,4.10
2022-10-24T06:55:28.840Z,7.43
2022-10-24T06:57:55.901Z,5.73
2022-10-24T07:00:23.021Z,5.63
2022-10-24T07:02:50.263Z,9.67
2022-10-24T07:05:17.509Z,4.43
2022-10-24T07:07:45.474Z,6.07
2022-10-24T07:10:14.881Z,2.60
2022-10-24T07:12:43.796Z,2.40
2022-10-24T07:15:12.150Z,3.10
2022-10-24T07:17:45.298Z,5.40
2022-10-24T07:20:13.825Z,4.20
2022-10-24T07:22:42.744Z,2.77
2022-10-24T07:25:10.181Z,2.63
2022-10-24T07:27:37.961Z,4.20
2022-10-24T07:30:07.730Z,2.53
2022-10-24T07:32:35.344Z,2.40
2022-10-24T07:35:02.619Z,2.10
2022-10-24T07:37:29.973Z,5.70
2022-10-24T07:40:00.900Z,2.87
2022-10-24T07:42:28.501Z,3.70
2022-10-24T07:44:55.778Z,4.40
2022-10-24T07:47:22.875Z,2.50
2022-10-24T07:49:49.961Z,3.07
2022-10-24T07:52:17.091Z,2.67
2022-10-24T07:54:44.271Z,2.53
2022-10-24T07:57:11.296Z,3.00
2022-10-24T07:59:42.117Z,2.83
2022-10-24T08:02:13.559Z,3.67
2022-10-24T08:04:41.628Z,2.93
2022-10-24T08:07:13.650Z,3.83
2022-10-24T08:09:46.023Z,3.70
2022-10-24T08:12:13.487Z,4.57
2022-10-24T08:14:42.033Z,4.83
2022-10-24T08:17:10.915Z,3.33
2022-10-24T08:19:43.954Z,3.13
2022-10-24T08:22:12.780Z,2.30
2022-10-24T08:24:40.230Z,2.27
2022-10-24T08:27:07.282Z,2.40
2022-10-24T08:29:34.361Z,4.50
2022-10-24T08:32:01.545Z,3.03
2022-10-24T08:34:28.743Z,3.27
2022-10-24T08:36:55.824Z,1.73
2022-10-24T08:39:22.892Z,2.83
2022-10-24T08:41:59.544Z,2.07
2022-10-24T08:44:40.262Z,2.20
2022-10-24T08:47:46.528Z,1.93
2022-10-24T08:50:33.857Z,1.50
2022-10-24T08:53:28.248Z,1.90
2022-10-24T08:55:59.721Z,2.60
2022-10-24T08:58:41.106Z,1.63
2022-10-24T09:01:23.599Z,1.73
2022-10-24T09:03:57.476Z,1.80
2022-10-24T09:06:29.573Z,1.73
2022-10-24T09:09:02.631Z,2.00
2022-10-24T09:12:17.532Z,1.43
2022-10-24T09:14:50.900Z,1.30
2022-10-24T09:17:32.623Z,2.80
2022-10-24T09:20:19.026Z,1.63
2022-10-24T09:22:47.427Z,1.43
2022-10-24T09:25:25.771Z,1.70
2022-10-24T09:27:52.896Z,3.00
2022-10-24T09:30:30.159Z,2.27
2022-10-24T09:33:33.549Z,1.07
2022-10-24T09:36:05.218Z,2.07
2022-10-24T09:38:38.378Z,1.80
2022-10-24T09:41:26.724Z,1.60
2022-10-24T09:44:05.643Z,2.00
2022-10-24T09:46:45.313Z,1.57
2022-10-24T09:49:22.991Z,1.90
2022-10-24T09:52:18.947Z,1.83
2022-10-24T09:54:47.545Z,2.40
2022-10-24T09:57:18.069Z,4.20
2022-10-24T09:59:59.410Z,2.00
2022-10-24T10:02:30.292Z,2.07
2022-10-24T10:05:03.439Z,1.50
2022-10-24T10:07:38.509Z,1.50
2022-10-24T10:10:27.098Z,1.63
2022-10-24T10:13:05.530Z,1.57
2022-10-24T10:15:50.511Z,1.73
2022-10-24T10:18:20.465Z,1.53
2022-10-24T10:21:20.073Z,1.70
2022-10-24T10:23:55.222Z,1.47
2022-10-24T10:26:48.743Z,1.87
2022-10-24T10:29:19.189Z,2.23
2022-10-24T10:32:07.098Z,1.73
2022-10-24T10:34:46.917Z,1.33
2022-10-24T10:37:39.614Z,1.50
2022-10-24T10:40:29.283Z,4.00
2022-10-24T10:43:48.373Z,2.17
2022-10-24T10:46:30.432Z,1.43
2022-10-24T10:49:16.651Z,3.07
2022-10-24T10:52:06.446Z,1.47
2022-10-24T10:55:17.587Z,1.30
2022-10-24T10:58:15.655Z,2.07
2022-10-24T11:01:11.693Z,1.77
2022-10-24T11:04:07.511Z,1.77
2022-10-24T11:07:04.131Z,1.80
2022-10-24T11:09:49.518Z,1.80
2022-10-24T11:12:30.835Z,2.00
2022-10-24T11:15:29.792Z,2.63
2022-10-24T11:18:31.559Z,2.47
2022-10-24T11:21:09.855Z,1.97
2022-10-24T11:23:50.373Z,1.97
2022-10-24T11:26:37.056Z,2.97
2022-10-24T11:29:17.864Z,3.73
2022-10-24T11:31:54.165Z,1.77
2022-10-24T11:34:35.539Z,4.83
2022-10-24T11:37:28.281Z,3.00
2022-10-24T11:40:13.144Z,4.40
2022-10-24T11:43:13.428Z,2.50
2022-10-24T11:45:55.772Z,3.20
2022-10-24T11:48:45.324Z,4.67
2022-10-24T11:51:39.144Z,2.97
2022-10-24T11:54:19.074Z,3.53
2022-10-24T11:56:59.697Z,4.43
2022-10-24T11:59:28.190Z,3.63
2022-10-24T12:01:55.175Z,2.93
2022-10-24T12:04:34.293Z,4.07
2022-10-24T12:07:26.138Z,3.53
2022-10-24T12:10:12.272Z,4.27
2022-10-24T12:13:06.612Z,3.17
2022-10-24T12:16:25.373Z,4.00
2022-10-24T12:19:03.445Z,4.13
2022-10-24T12:21:45.589Z,4.70
2022-10-24T12:24:38.859Z,4.73
2022-10-24T12:27:21.674Z,3.83
2022-10-24T12:30:16.324Z,4.17
2022-10-24T12:32:55.776Z,5.13
2022-10-24T12:35:40.087Z,4.93
2022-10-24T12:38:29.009Z,5.93
2022-10-24T12:41:05.890Z,5.23
2022-10-24T12:43:36.045Z,5.00
2022-10-24T12:46:27.368Z,5.07
2022-10-24T12:48:57.169Z,4.40
2022-10-24T12:51:36.691Z,5.43
2022-10-24T12:54:12.989Z,6.30
2022-10-24T12:57:03.991Z,5.10
2022-10-24T12:59:59.263Z,4.07
2022-10-24T13:03:06.866Z,6.10
2022-10-24T13:05:49.873Z,5.60
2022-10-24T13:08:40.702Z,5.90
2022-10-24T13:11:37.299Z,6.50
2022-10-24T13:14:22.489Z,6.07
2022-10-24T13:17:13.729Z,4.63
2022-10-24T13:19:40.979Z,5.13
2022-10-24T13:22:29.974Z,5.43
2022-10-24T13:24:57.653Z,6.27
2022-10-24T13:27:30.850Z,3.97
2022-10-24T13:29:57.913Z,6.43
2022-10-24T13:32:34.132Z,7.37
2022-10-24T13:35:04.130Z,6.00
2022-10-24T13:37:46.527Z,4.53
2022-10-24T13:40:33.286Z,6.87
2022-10-24T13:43:14.286Z,7.47
2022-10-24T13:46:01.678Z,8.23
2022-10-24T13:48:34.255Z,7.87
2022-10-24T13:51:42.673Z,5.03
2022-10-24T13:54:22.207Z,6.73
2022-10-24T13:56:50.157Z,7.33
2022-10-24T13:59:34.464Z,6.37
2022-10-24T14:02:07.591Z,8.17
2022-10-24T14:04:36.473Z,8.03
2022-10-24T14:07:08.243Z,7.77
2022-10-24T14:09:44.244Z,6.33
2022-10-24T14:12:25.636Z,6.23
2022-10-24T14:14:54.037Z,5.87
2022-10-24T14:17:29.327Z,8.27
2022-10-24T14:19:59.289Z,8.00
2022-10-24T14:22:41.181Z,4.97
2022-10-24T14:25:36.177Z,6.97
2022-10-24T14:28:16.190Z,6.67
2022-10-24T14:30:55.688Z,7.90
2022-10-24T14:33:30.113Z,7.20
2022-10-24T14:36:01.971Z,6.30
2022-10-24T14:38:30.154Z,6.77
2022-10-24T14:41:08.286Z,10.03
2022-10-24T14:43:42.128Z,8.97
2022-10-24T14:46:37.678Z,7.37
2022-10-24T14:49:26.467Z,6.77
2022-10-24T14:52:02.417Z,9.33
2022-10-24T14:54:35.358Z,9.40
2022-10-24T14:57:09.235Z,7.50
2022-10-24T14:59:45.370Z,12.60
2022-10-24T15:02:20.704Z,8.03
2022-10-24T15:04:48.207Z,6.67
2022-10-24T15:07:36.554Z,10.33
2022-10-24T15:10:13.467Z,8.60
2022-10-24T15:12:42.500Z,10.50
2022-10-24T15:15:33.992Z,10.30
2022-10-24T15:18:23.991Z,9.63
2022-10-24T15:21:13.900Z,9.60
2022-10-24T15:23:53.789Z,15.63
2022-10-24T15:26:32.703Z,15.63
2022-10-24T15:29:02.774Z,9.17
2022-10-24T15:31:34.500Z,11.43
2022-10-24T15:34:01.652Z,10.87
2022-10-24T15:36:41.671Z,9.43
2022-10-24T15:39:15.164Z,9.53
2022-10-24T15:41:43.015Z,10.57
2022-10-24T15:44:18.703Z,10.77
2022-10-24T15:46:48.336Z,12.07
2022-10-24T15:49:16.230Z,12.50
2022-10-24T15:51:50.083Z,9.47
2022-10-24T15:54:22.775Z,11.97
2022-10-24T15:56:50.780Z,7.73
2022-10-24T15:59:19.993Z,10.33
2022-10-24T16:01:55.875Z,9.00
2022-10-24T16:04:24.095Z,10.30
2022-10-24T16:06:51.798Z,11.10
2022-10-24T16:09:23.628Z,8.37
2022-10-24T16:11:50.843Z,8.57
2022-10-24T16:14:21.109Z,9.97
2022-10-24T16:16:49.080Z,14.63
2022-10-24T16:19:16.391Z,8.97
2022-10-24T16:21:44.163Z,11.23
2022-10-24T16:24:13.009Z,12.10
2022-10-24T16:26:41.639Z,8.03
2022-10-24T16:29:08.797Z,9.57
2022-10-24T16:31:36.100Z,9.77
2022-10-24T16:34:03.429Z,9.03
2022-10-24T16:36:32.956Z,8.57
2022-10-24T16:39:00.251Z,8.23
2022-10-24T16:41:27.774Z,7.80
2022-10-24T16:43:57.842Z,8.50
2022-10-24T16:46:28.201Z,9.43
2022-10-24T16:48:56.287Z,12.63
2022-10-24T16:51:32.415Z,8.63
2022-10-24T16:54:02.404Z,9.27
2022-10-24T16:56:30.375Z,7.97
2022-10-24T16:58:58.230Z,12.80
2022-10-24T17:01:27.679Z,9.67
2022-10-24T17:03:55.714Z,17.23
2022-10-24T17:06:23.331Z,55.90
2022-10-24T17:08:51.645Z,11.83
2022-10-24T17:11:43.134Z,10.57
2022-10-24T17:14:06.338Z,8.17
2022-10-24T17:16:33.888Z,9.00
2022-10-24T17:19:17.464Z,10.23
2022-10-24T17:21:51.455Z,9.70
2022-10-24T17:24:22.999Z,11.40
2022-10-24T17:26:51.508Z,13.70
2022-10-24T17:29:33.408Z,16.23
2022-10-24T17:32:01.012Z,9.90
2022-10-24T17:34:29.667Z,10.37
2022-10-24T17:37:20.667Z,12.47
2022-10-24T17:40:13.843Z,6.67
2022-10-24T17:42:43.916Z,11.50
2022-10-24T17:45:20.184Z,8.23
2022-10-24T17:47:49.102Z,11.60
2022-10-24T17:50:18.919Z,11.63
2022-10-24T17:52:51.439Z,10.43
2022-10-24T17:58:13.449Z,9.83
2022-10-24T18:00:41.835Z,10.97
2022-10-24T18:03:09.998Z,10.00
2022-10-24T18:05:39.049Z,8.73
2022-10-24T18:08:10.373Z,7.23
2022-10-24T18:10:40.476Z,11.13
2022-10-24T18:13:09.880Z,10.20
2022-10-24T18:15:38.612Z,9.87
2022-10-24T18:18:07.606Z,8.60
2022-10-24T18:20:36.295Z,9.83
2022-10-24T18:23:04.896Z,8.83
2022-10-24T18:25:39.152Z,10.17
2022-10-24T18:28:07.222Z,6.67
2022-10-24T18:30:35.964Z,6.20
2022-10-24T18:33:11.457Z,9.23
2022-10-24T18:36:17.321Z,9.03
2022-10-24T18:39:02.471Z,9.13
2022-10-24T18:42:12.321Z,11.80
2022-10-24T18:44:50.970Z,9.07
2022-10-24T18:47:25.583Z,10.83
2022-10-24T18:49:58.184Z,9.67
2022-10-24T18:53:13.268Z,11.37
2022-10-24T18:55:49.575Z,16.70
2022-10-24T18:58:20.561Z,13.80
2022-10-24T19:01:03.540Z,15.17
2022-10-24T19:03:36.237Z,10.87
2022-10-24T19:06:35.202Z,8.87
2022-10-24T19:09:03.798Z,10.80
2022-10-24T19:11:38.904Z,13.13
2022-10-24T19:14:07.456Z,16.27
2022-10-24T19:16:36.296Z,12.43
2022-10-24T19:19:05.547Z,12.47
2022-10-24T19:21:34.263Z,13.87
2022-10-24T19:24:03.658Z,14.80
2022-10-24T19:26:32.945Z,14.27
2022-10-24T19:29:03.569Z,15.30
2022-10-24T19:31:34.147Z,13.60
2022-10-24T19:34:02.435Z,12.43
2022-10-24T19:36:31.448Z,11.57
2022-10-24T19:39:01.332Z,10.37
2022-10-24T19:41:29.275Z,10.00
2022-10-24T19:43:57.334Z,13.67
2022-10-24T19:46:24.874Z,10.03
2022-10-24T19:48:53.245Z,11.27
2022-10-24T19:51:21.378Z,11.70
2022-10-24T19:53:49.909Z,12.73
2022-10-24T19:56:25.311Z,11.30
2022-10-24T19:58:54.476Z,9.13
2022-10-24T20:01:25.634Z,12.43
2022-10-24T20:03:55.203Z,11.73
2022-10-24T20:06:24.448Z,9.80
2022-10-24T20:08:51.696Z,14.90
2022-10-24T20:11:20.874Z,17.40
2022-10-24T20:13:50.403Z,13.27
2022-10-24T20:16:18.662Z,10.80
2022-10-24T20:18:46.160Z,8.90
2022-10-24T20:21:18.022Z,13.57
2022-10-24T20:23:47.816Z,11.70
2022-10-24T20:26:20.739Z,13.17
2022-10-24T20:28:51.060Z,11.13
2022-10-24T20:31:34.509Z,10.93
2022-10-24T20:34:08.392Z,12.00
2022-10-24T20:36:38.587Z,9.43
2022-10-24T20:39:08.063Z,13.27
2022-10-24T20:41:36.844Z,13.30
2022-10-24T20:44:07.021Z,7.00
2022-10-24T20:46:35.168Z,11.53
2022-10-24T20:49:02.437Z,15.30
2022-10-24T20:51:29.531Z,16.00
2022-10-24T20:53:56.739Z,16.07
2022-10-24T20:56:26.858Z,14.93
2022-10-24T20:58:56.110Z,12.33
2022-10-24T21:01:27.461Z,12.20
2022-10-24T21:03:56.968Z,9.53
2022-10-24T21:06:27.795Z,10.37
2022-10-24T21:08:59.063Z,9.37
2022-10-24T21:11:29.189Z,10.63
2022-10-24T21:14:03.400Z,9.53
2022-10-24T21:16:31.991Z,9.40
2022-10-24T21:19:00.290Z,13.10
2022-10-24T21:21:28.197Z,13.23
2022-10-24T21:24:02.350Z,10.13
2022-10-24T21:26:34.429Z,9.50
2022-10-24T21:29:09.330Z,10.87
2022-10-24T21:31:50.520Z,9.67
2022-10-24T21:34:18.661Z,13.53
2022-10-24T21:36:45.885Z,10.53
2022-10-24T21:39:15.440Z,15.33
2022-10-24T21:41:43.130Z,9.47
2022-10-24T21:44:10.570Z,10.00
2022-10-24T21:46:37.762Z,10.93
2022-10-24T21:49:05.123Z,14.47
2022-10-24T21:51:36.178Z,9.63
2022-10-24T21:54:16.420Z,14.77
2022-10-24T21:56:45.727Z,18.37
2022-10-24T21:59:19.572Z,12.33
2022-10-24T22:01:48.660Z,10.97
2022-10-24T22:04:17.241Z,11.50
2022-10-24T22:06:45.265Z,9.13
2022-10-24T22:09:16.997Z,16.33
2022-10-24T22:11:44.790Z,14.50
2022-10-24T22:14:16.131Z,14.67
2022-10-24T22:16:43.898Z,10.57
2022-10-24T22:19:13.927Z,11.10
2022-10-24T22:21:47.850Z,11.00
2022-10-24T22:24:21.966Z,12.27
2022-10-24T22:26:51.083Z,13.13
2022-10-24T22:29:22.508Z,15.23
2022-10-24T22:31:51.995Z,12.67
2022-10-24T22:34:23.608Z,11.23
2022-10-24T22:37:16.070Z,16.10
2022-10-24T22:39:43.519Z,11.90
2022-10-24T22:42:14.694Z,11.07
2022-10-24T22:44:45.502Z,13.97
2022-10-24T22:47:27.255Z,9.63
2022-10-24T22:50:50.792Z,13.50
2022-10-24T22:53:27.617Z,14.53
2022-10-24T22:55:54.596Z,10.30
2022-10-24T22:58:22.382Z,9.60
2022-10-24T23:00:58.326Z,12.70
2022-10-24T23:03:52.534Z,12.73
2022-10-24T23:06:28.063Z,15.43
2022-10-24T23:08:55.552Z,13.93
2022-10-24T23:11:22.991Z,14.00
2022-10-24T23:13:50.613Z,15.10
2022-10-24T23:16:35.129Z,11.77
2022-10-24T23:19:17.650Z,12.03
2022-10-24T23:22:22.478Z,10.33
2022-10-24T23:24:51.364Z,11.10
2022-10-24T23:27:43.171Z,12.27
2022-10-24T23:30:23.436Z,12.57
2022-10-24T23:32:51.869Z,12.77
2022-10-24T23:35:21.446Z,14.50
2022-10-24T23:37:51.976Z,13.70
2022-10-24T23:40:36.770Z,14.90
2022-10-24T23:43:05.220Z,9.17
2022-10-24T23:45:49.936Z,11.97
2022-10-24T23:49:15.647Z,12.10
2022-10-24T23:52:01.520Z,11.83
2022-10-24T23:54:33.586Z,10.10
2022-10-24T23:57:01.554Z,10.83
2022-10-24T23:59:28.941Z,9.13
